Time;durP1;ratioP1;P1;durP2;ratioP2;P2;SDS_P1;SDS_P2;PMS_P1;PMS_P2;Temp;Humidity;BMP_temperature;BMP_pressure;BME280_temperature;BME280_humidity;BME280_pressure;Samples;Min_cycle;Max_cycle;Signal;HPM_P1;HPM_P2
2022/06/13 00:02:02;;;;;;;1.70;1.02;;;;;;;20.66;72.45;99410.50;5073211;28;20039;-82
2022/06/13 00:04:27;;;;;;;1.02;0.75;;;;;;;20.56;72.58;99398.63;5072530;28;20043;-83
2022/06/13 00:06:53;;;;;;;1.73;1.08;;;;;;;20.74;71.63;99402.88;5072624;28;20032;-83
2022/06/13 00:09:19;;;;;;;2.10;1.30;;;;;;;20.56;71.32;99412.88;5073043;28;20482;-83
2022/06/13 00:11:44;;;;;;;2.53;1.67;;;;;;;20.60;71.72;99408.19;5071926;28;20032;-84
2022/06/13 00:14:10;;;;;;;1.58;0.80;;;;;;;20.61;71.37;99412.59;5073201;28;20031;-84
2022/06/13 00:16:35;;;;;;;4.15;1.45;;;;;;;20.56;71.57;99428.09;5073108;28;20032;-83
2022/06/13 00:19:01;;;;;;;2.38;1.15;;;;;;;20.40;71.34;99385.28;5072903;28;20036;-85
2022/06/13 00:21:31;;;;;;;1.17;0.95;;;;;;;20.59;71.03;99379.69;5072079;28;20418;-84
2022/06/13 00:23:57;;;;;;;2.80;1.20;;;;;;;20.48;71.44;99401.78;5072235;28;20036;-84
2022/06/13 00:26:25;;;;;;;1.50;1.00;;;;;;;20.60;72.13;99405.50;5072408;28;20033;-84
2022/06/13 00:28:52;;;;;;;1.23;0.90;;;;;;;20.70;71.38;99397.81;5072057;28;20037;-83
2022/06/13 00:31:18;;;;;;;2.53;1.10;;;;;;;20.51;72.01;99401.59;5072513;28;20102;-83
2022/06/13 00:33:43;;;;;;;1.23;0.90;;;;;;;20.22;72.04;99363.16;5071906;28;20517;-83
2022/06/13 00:36:09;;;;;;;2.58;1.55;;;;;;;20.30;71.75;99381.44;5072721;28;20032;-84
2022/06/13 00:38:37;;;;;;;1.40;0.88;;;;;;;20.69;71.08;99415.69;5072657;28;20033;-83
2022/06/13 00:41:16;;;;;;;2.88;1.45;;;;;;;20.44;71.20;99394.88;5073149;28;20021;-84
2022/06/13 00:43:45;;;;;;;1.88;1.15;;;;;;;20.67;70.96;99416.75;5071557;28;20029;-84
2022/06/13 00:46:30;;;;;;;1.38;0.93;;;;;;;20.37;70.79;99381.00;5072869;28;20022;-84
2022/06/13 00:49:00;;;;;;;2.00;1.25;;;;;;;20.64;70.15;99395.47;5072327;28;20036;-85
2022/06/13 00:51:27;;;;;;;1.70;0.70;;;;;;;20.94;68.99;99419.53;5071228;28;20028;-84
2022/06/13 00:53:53;;;;;;;0.98;0.90;;;;;;;20.71;69.52;99402.19;5071813;28;20025;-84
2022/06/13 00:56:23;;;;;;;2.65;1.20;;;;;;;20.66;69.75;99393.59;5071119;28;20170;-84
2022/06/13 00:58:53;;;;;;;1.83;0.95;;;;;;;20.92;69.01;99422.31;5072682;28;20071;-84
2022/06/13 01:01:21;;;;;;;1.67;1.10;;;;;;;20.62;69.88;99395.56;5071432;28;20033;-84
2022/06/13 01:03:46;;;;;;;2.65;1.00;;;;;;;20.79;69.63;99399.91;5071997;28;20063;-85
2022/06/13 01:06:13;;;;;;;2.08;1.02;;;;;;;20.93;68.88;99407.97;5071524;28;20051;-85
2022/06/13 01:08:39;;;;;;;1.23;0.93;;;;;;;20.91;68.93;99409.88;5072169;28;20032;-84
2022/06/13 01:11:16;;;;;;;1.23;1.13;;;;;;;20.79;68.67;99393.69;5071364;28;20031;-83
2022/06/13 01:14:12;;;;;;;1.33;0.90;;;;;;;21.10;68.55;99414.94;5072074;28;20055;-85
2022/06/13 01:16:43;;;;;;;1.40;0.70;;;;;;;21.02;68.22;99427.97;5071985;28;20028;-84
2022/06/13 01:19:43;;;;;;;2.33;1.67;;;;;;;20.74;67.74;99384.13;5071956;28;20036;-84
2022/06/13 01:22:36;;;;;;;5.35;1.50;;;;;;;21.08;67.24;99424.03;5052217;28;20044;-84
2022/06/13 01:25:11;;;;;;;2.85;1.42;;;;;;;21.15;67.49;99430.75;5067811;28;20032;-84
2022/06/13 01:27:57;;;;;;;1.43;0.90;;;;;;;20.98;68.25;99417.53;5053764;28;20422;-83
2022/06/13 01:30:35;;;;;;;1.70;1.02;;;;;;;21.03;67.77;99407.38;5061892;28;20329;-83
2022/06/13 01:33:16;;;;;;;1.75;1.35;;;;;;;21.09;67.42;99423.09;5071239;28;20091;-84
2022/06/13 01:35:46;;;;;;;1.10;0.80;;;;;;;21.11;66.86;99424.69;5071889;28;21065;-83
2022/06/13 01:38:36;;;;;;;1.73;1.45;;;;;;;21.00;67.24;99421.81;5053038;28;20044;-83
2022/06/13 01:41:08;;;;;;;1.27;1.13;;;;;;;21.04;67.37;99418.00;5071268;28;20548;-84
2022/06/13 01:43:49;;;;;;;1.13;0.80;;;;;;;20.98;67.67;99423.75;5071691;28;20028;-83
2022/06/13 01:46:23;;;;;;;1.52;0.95;;;;;;;20.98;68.27;99426.44;5071373;28;20021;-85
2022/06/13 01:49:05;;;;;;;1.33;0.93;;;;;;;20.87;68.50;99419.06;5053465;28;20400;-84
2022/06/13 01:51:53;;;;;;;1.73;1.05;;;;;;;20.85;68.58;99417.41;5070858;28;20085;-83
2022/06/13 01:54:27;;;;;;;1.65;0.95;;;;;;;20.96;67.98;99422.13;5070517;28;20086;-84
2022/06/13 01:57:04;;;;;;;2.63;2.10;;;;;;;20.70;68.94;99412.06;5071429;28;20409;-83
2022/06/13 01:59:54;;;;;;;1.17;0.82;;;;;;;20.49;69.32;99390.06;5071688;28;20050;-84
2022/06/13 02:02:37;;;;;;;2.65;0.98;;;;;;;20.68;69.05;99408.63;5051899;28;20422;-84
2022/06/13 02:05:16;;;;;;;1.00;0.80;;;;;;;20.54;68.92;99421.94;5071403;28;20025;-84
2022/06/13 02:07:51;;;;;;;1.73;0.70;;;;;;;20.38;69.06;99414.84;5070864;28;20033;-83
2022/06/13 02:10:21;;;;;;;2.45;1.63;;;;;;;20.65;68.94;99407.94;5052547;28;20052;-84
2022/06/13 02:12:54;;;;;;;1.60;1.15;;;;;;;20.51;68.83;99388.19;5070863;28;20082;-84
2022/06/13 02:15:25;;;;;;;1.10;1.00;;;;;;;20.53;69.15;99396.13;5070675;28;20085;-84
2022/06/13 02:17:58;;;;;;;1.48;0.70;;;;;;;20.68;68.41;99405.06;5071252;28;20158;-83
2022/06/13 02:20:28;;;;;;;1.65;1.05;;;;;;;20.69;67.99;99374.63;5070542;28;20025;-84
2022/06/13 02:23:01;;;;;;;2.38;1.15;;;;;;;21.02;67.76;99400.28;5069943;28;20028;-84
2022/06/13 02:25:43;;;;;;;1.88;1.42;;;;;;;20.98;67.89;99409.50;5070911;28;20032;-83
2022/06/13 02:28:26;;;;;;;1.95;1.08;;;;;;;20.67;70.38;99409.56;5070575;28;20115;-84
2022/06/13 02:31:01;;;;;;;3.25;2.22;;;;;;;20.68;70.19;99402.38;5068667;28;20517;-84
2022/06/13 02:33:35;;;;;;;2.55;1.77;;;;;;;20.87;69.59;99432.47;5052959;28;20471;-83
2022/06/13 02:36:37;;;;;;;1.95;1.33;;;;;;;20.65;70.59;99424.00;5070441;28;20025;-83
2022/06/13 02:39:15;;;;;;;1.30;1.20;;;;;;;20.36;70.91;99423.94;5037850;28;20125;-83
2022/06/13 02:41:46;;;;;;;1.17;0.80;;;;;;;20.33;71.71;99430.34;5070237;28;20040;-83
2022/06/13 02:44:41;;;;;;;1.17;0.80;;;;;;;20.44;70.91;99435.03;5069386;28;20033;-83
2022/06/13 02:47:22;;;;;;;;;;;;;;;20.34;71.66;99437.41;5070544;28;20055;-83
2022/06/13 02:50:06;;;;;;;1.63;0.98;;;;;;;20.42;71.20;99428.03;5069195;28;20007;-84
2022/06/13 02:52:39;;;;;;;7.13;1.00;;;;;;;20.43;71.33;99427.94;5069272;28;20036;-85
2022/06/13 02:55:08;;;;;;;1.75;1.00;;;;;;;20.16;71.68;99420.63;5070731;28;20043;-84
2022/06/13 02:57:53;;;;;;;2.30;1.23;;;;;;;20.25;71.48;99404.94;5052189;28;20198;-84
2022/06/13 03:00:19;;;;;;;3.20;1.65;;;;;;;20.33;72.13;99427.66;5069045;28;20032;-84
2022/06/13 03:02:44;;;;;;;1.73;1.15;;;;;;;20.36;71.91;99422.13;5068996;28;20035;-86
2022/06/13 03:05:23;;;;;;;2.50;1.35;;;;;;;20.24;72.49;99422.00;5068739;28;20040;-87
2022/06/13 03:07:58;;;;;;;1.25;1.15;;;;;;;20.12;72.48;99404.81;5070289;28;20028;-85
2022/06/13 03:10:35;;;;;;;1.80;1.42;;;;;;;20.04;73.16;99400.78;5070227;28;20122;-87
2022/06/13 03:13:08;;;;;;;2.30;1.42;;;;;;;20.06;73.74;99421.25;5070308;28;20072;-86
2022/06/13 03:15:47;;;;;;;2.63;1.67;;;;;;;19.95;73.57;99400.47;5073451;28;20039;-85
2022/06/13 03:18:28;;;;;;;2.55;1.70;;;;;;;20.07;72.96;99402.41;5074576;28;20027;-85
2022/06/13 03:20:59;;;;;;;1.33;1.15;;;;;;;20.09;73.39;99432.63;5053811;28;20515;-85
2022/06/13 03:23:35;;;;;;;1.40;1.08;;;;;;;20.14;72.97;99424.31;5067505;28;20032;-86
2022/06/13 03:26:02;;;;;;;;;;;;;;;20.13;73.34;99438.69;5075043;28;20029;-88
2022/06/13 03:28:43;;;;;;;1.83;1.55;;;;;;;20.14;73.18;99425.22;5073869;28;19998;-85
2022/06/13 03:31:18;;;;;;;1.65;0.85;;;;;;;19.95;73.54;99403.13;5073882;28;20494;-88
2022/06/13 03:33:49;;;;;;;1.85;1.25;;;;;;;19.93;74.32;99418.44;5055770;28;20147;-84
2022/06/13 03:36:43;;;;;;;1.38;0.85;;;;;;;19.89;74.90;99431.13;5073377;28;20029;-84
2022/06/13 03:39:21;;;;;;;2.40;1.02;;;;;;;19.90;74.63;99435.53;5073837;28;20139;-86
2022/06/13 03:41:49;;;;;;;1.75;1.40;;;;;;;20.04;74.20;99438.25;5073560;28;20056;-86
2022/06/13 03:44:25;;;;;;;2.05;1.27;;;;;;;20.14;73.75;99432.38;5055685;28;20406;-87
2022/06/13 03:47:01;;;;;;;2.28;1.10;;;;;;;19.87;74.44;99416.13;5073875;28;20080;-83
2022/06/13 03:49:44;;;;;;;2.33;1.33;;;;;;;19.75;74.80;99421.16;5073287;28;20031;-84
2022/06/13 03:52:13;;;;;;;2.03;1.52;;;;;;;19.93;74.72;99431.81;5072934;28;20135;-86
2022/06/13 03:54:57;;;;;;;2.65;1.65;;;;;;;19.90;74.32;99435.53;5073449;28;20032;-90
2022/06/13 03:57:42;;;;;;;4.20;2.45;;;;;;;20.10;72.71;99429.00;5072979;28;20032;-85
2022/06/13 04:00:22;;;;;;;1.90;1.08;;;;;;;20.38;72.20;99446.97;5073094;28;20039;-83
2022/06/13 04:02:48;;;;;;;1.08;0.90;;;;;;;20.13;71.38;99412.75;5073878;28;20041;-83
2022/06/13 04:05:27;;;;;;;1.95;1.75;;;;;;;20.37;71.63;99439.03;5072833;28;20111;-85
2022/06/13 04:07:53;;;;;;;2.15;1.17;;;;;;;20.52;70.83;99461.38;5073241;28;20124;-83
2022/06/13 04:10:22;;;;;;;2.05;1.20;;;;;;;20.58;69.92;99434.22;5072155;28;20032;-82
2022/06/13 04:13:06;;;;;;;2.40;1.17;;;;;;;20.46;70.00;99457.25;5072419;28;20036;-82
2022/06/13 04:15:31;;;;;;;2.88;2.03;;;;;;;20.56;70.48;99460.25;5071324;28;20020;-84
2022/06/13 04:18:34;;;;;;;1.58;0.85;;;;;;;20.61;70.32;99449.25;5072506;28;20016;-82
2022/06/13 04:21:24;;;;;;;1.83;1.15;;;;;;;20.61;70.37;99449.25;5061126;28;20032;-83
2022/06/13 04:24:08;;;;;;;1.83;1.33;;;;;;;20.72;69.31;99458.38;5069152;28;20028;-82
2022/06/13 04:26:49;;;;;;;1.13;0.68;;;;;;;20.98;68.59;99452.41;5069064;28;20369;-81
2022/06/13 04:29:47;;;;;;;1.02;0.77;;;;;;;21.15;68.35;99454.88;5072975;28;20044;-80
2022/06/13 04:32:18;;;;;;;1.30;0.85;;;;;;;21.22;67.70;99445.47;5059237;28;20055;-81
2022/06/13 04:34:48;;;;;;;1.20;1.10;;;;;;;21.55;68.09;99440.75;5072764;28;20051;-82
2022/06/13 04:37:15;;;;;;;2.10;0.93;;;;;;;21.69;66.54;99458.66;5072032;28;20411;-81
2022/06/13 04:39:43;;;;;;;1.08;0.93;;;;;;;21.62;66.87;99426.00;5072504;28;20028;-82
2022/06/13 04:42:11;;;;;;;1.25;1.15;;;;;;;21.80;66.06;99445.41;5071736;28;20055;-82
2022/06/13 04:44:39;;;;;;;2.13;1.48;;;;;;;21.52;66.47;99430.22;5072949;28;20041;-82
2022/06/13 04:47:06;;;;;;;1.85;1.27;;;;;;;21.73;66.04;99433.34;5071960;28;20028;-82
2022/06/13 04:49:40;;;;;;;1.52;1.10;;;;;;;21.85;66.60;99442.44;5071856;28;20058;-83
2022/06/13 04:52:18;;;;;;;4.25;0.80;;;;;;;22.15;65.51;99429.66;5071965;28;20094;-82
2022/06/13 04:54:52;;;;;;;2.30;1.48;;;;;;;22.15;65.01;99416.22;5072594;28;20032;-82
2022/06/13 04:57:18;;;;;;;1.53;1.00;;;;;;;22.23;63.88;99433.63;5071191;28;20040;-82
2022/06/13 04:59:46;;;;;;;2.42;1.90;;;;;;;22.24;64.11;99459.53;5070805;28;20350;-82
2022/06/13 05:02:13;;;;;;;1.35;0.88;;;;;;;22.17;63.78;99446.50;5072365;28;20039;-82
2022/06/13 05:04:39;;;;;;;1.15;0.90;;;;;;;22.13;63.97;99415.44;5072415;28;20035;-81
2022/06/13 05:07:31;;;;;;;2.53;1.10;;;;;;;22.56;63.33;99468.13;5069401;28;20079;-81
2022/06/13 05:10:00;;;;;;;1.25;1.00;;;;;;;22.71;62.75;99447.41;5062295;28;20036;-82
2022/06/13 05:12:42;;;;;;;0.95;0.85;;;;;;;23.05;62.04;99459.34;5061274;28;20047;-81
2022/06/13 05:15:22;;;;;;;2.28;1.15;;;;;;;22.74;62.01;99422.13;5052565;28;20033;-82
2022/06/13 05:18:30;;;;;;;1.70;1.05;;;;;;;23.27;61.45;99457.84;5070340;28;20556;-83
2022/06/13 05:21:38;;;;;;;1.85;1.27;;;;;;;23.26;60.88;99442.66;5071299;28;20040;-83
2022/06/13 05:24:20;;;;;;;2.83;1.67;;;;;;;23.05;60.78;99413.63;5047349;28;20114;-84
2022/06/13 05:26:46;;;;;;;2.55;1.50;;;;;;;23.52;61.05;99437.25;5071950;28;20032;-83
2022/06/13 05:29:11;;;;;;;1.92;1.30;;;;;;;23.66;58.71;99434.38;5071043;28;20043;-83
2022/06/13 05:31:37;;;;;;;6.93;3.63;;;;;;;23.69;58.55;99431.47;5072015;28;20025;-83
2022/06/13 05:34:07;;;;;;;1.88;1.17;;;;;;;23.58;58.55;99418.78;5071254;28;20410;-83
2022/06/13 05:36:34;;;;;;;0.93;0.82;;;;;;;23.81;58.54;99442.31;5070571;28;20021;-83
2022/06/13 05:39:05;;;;;;;1.80;0.85;;;;;;;23.64;58.91;99439.03;5071051;28;20097;-85
2022/06/13 05:41:30;;;;;;;2.20;1.48;;;;;;;23.66;59.46;99431.69;5071068;28;20032;-85
2022/06/13 05:43:56;;;;;;;5.45;1.17;;;;;;;24.04;58.08;99448.72;5072142;28;20462;-83
2022/06/13 05:46:33;;;;;;;1.63;1.00;;;;;;;23.90;59.28;99431.75;5071625;28;20509;-83
2022/06/13 05:48:59;;;;;;;1.05;0.70;;;;;;;24.12;59.68;99452.53;5071721;28;20063;-83
2022/06/13 05:51:25;;;;;;;1.15;0.88;;;;;;;24.24;57.11;99447.22;5070454;28;20051;-82
2022/06/13 05:53:52;;;;;;;1.67;1.13;;;;;;;24.17;58.02;99427.09;5070954;28;20502;-83
2022/06/13 05:56:19;;;;;;;12.02;1.77;;;;;;;24.28;57.23;99425.31;5071408;28;20098;-82
2022/06/13 05:58:45;;;;;;;1.77;1.08;;;;;;;24.79;56.76;99448.41;5070808;28;20037;-83
2022/06/13 06:01:13;;;;;;;1.35;0.80;;;;;;;24.74;55.49;99442.47;5071140;28;20036;-83
2022/06/13 06:03:40;;;;;;;3.92;1.35;;;;;;;24.66;57.06;99413.41;5070851;28;20025;-83
2022/06/13 06:06:05;;;;;;;0.93;0.85;;;;;;;25.19;55.62;99439.84;5071152;28;20024;-84
2022/06/13 06:08:37;;;;;;;1.23;0.88;;;;;;;25.17;55.46;99409.41;5052323;28;20121;-83
2022/06/13 06:11:04;;;;;;;1.70;1.05;;;;;;;25.16;56.28;99450.00;5071368;28;20103;-83
2022/06/13 06:13:30;;;;;;;1.88;1.25;;;;;;;25.08;55.05;99444.38;5071307;28;20028;-83
2022/06/13 06:15:58;;;;;;;1.25;0.95;;;;;;;25.02;55.66;99432.22;5053380;28;20094;-82
2022/06/13 06:18:25;;;;;;;1.88;1.10;;;;;;;24.93;54.76;99433.81;5071173;28;20036;-83
2022/06/13 06:20:51;;;;;;;2.47;1.48;;;;;;;25.23;53.98;99447.69;5070811;28;20068;-82
2022/06/13 06:23:16;;;;;;;1.58;1.23;;;;;;;25.45;53.98;99436.91;5070936;28;20053;-83
2022/06/13 06:25:43;;;;;;;2.42;1.13;;;;;;;25.18;53.50;99413.84;5071260;28;20024;-83
2022/06/13 06:28:15;;;;;;;2.40;1.30;;;;;;;25.69;54.39;99449.41;5071214;28;20029;-83
2022/06/13 06:30:40;;;;;;;1.30;1.00;;;;;;;25.47;54.23;99428.69;5070917;28;20055;-84
2022/06/13 06:33:06;;;;;;;2.80;1.65;;;;;;;25.62;55.26;99421.19;5070809;28;20477;-84
2022/06/13 06:35:34;;;;;;;2.45;1.73;;;;;;;25.97;53.95;99447.13;5070933;28;20103;-83
2022/06/13 06:37:59;;;;;;;2.95;1.20;;;;;;;25.81;52.08;99439.41;5071247;28;20032;-83
2022/06/13 06:40:26;;;;;;;1.27;0.85;;;;;;;25.92;52.32;99458.31;5070865;28;20399;-82
2022/06/13 06:42:52;;;;;;;2.40;1.63;;;;;;;25.87;52.90;99442.50;5070996;28;20093;-82
2022/06/13 06:45:17;;;;;;;1.05;0.68;;;;;;;26.18;54.19;99458.00;5070839;28;20439;-83
2022/06/13 06:47:43;;;;;;;1.17;0.90;;;;;;;25.81;52.01;99394.38;5070854;28;20029;-83
2022/06/13 06:50:14;;;;;;;2.08;1.00;;;;;;;25.47;53.83;99423.28;5073924;28;20028;-83
2022/06/13 06:52:40;;;;;;;2.20;1.08;;;;;;;25.57;55.07;99453.09;5074897;28;20147;-83
2022/06/13 07:00:37;;;;;;;1.55;0.80;;;;;;;26.67;54.16;99450.31;5074093;28;20109;-84
2022/06/13 07:03:03;;;;;;;1.45;1.02;;;;;;;26.84;53.40;99429.91;5074405;28;20041;-84
2022/06/13 07:05:28;;;;;;;1.73;0.90;;;;;;;26.49;49.82;99450.00;5073490;28;20608;-83
2022/06/13 07:07:54;;;;;;;1.45;0.85;;;;;;;26.44;52.37;99435.00;5074536;28;20024;-83
2022/06/13 07:10:19;;;;;;;2.10;1.30;;;;;;;27.07;51.70;99444.97;5072925;28;20062;-83
2022/06/13 07:12:45;;;;;;;1.65;1.20;;;;;;;27.27;50.62;99431.53;5073888;28;20052;-84
2022/06/13 07:15:13;;;;;;;1.92;1.00;;;;;;;27.16;52.61;99441.47;5073061;28;20029;-83
2022/06/13 07:17:39;;;;;;;2.20;1.05;;;;;;;27.07;49.44;99452.25;5072929;28;20029;-82
2022/06/13 07:20:05;;;;;;;0.93;0.68;;;;;;;27.08;51.76;99435.00;5073664;28;20111;-82
2022/06/13 07:22:30;;;;;;;2.33;1.25;;;;;;;27.19;49.75;99458.41;5074055;28;20482;-83
2022/06/13 07:24:56;;;;;;;2.10;1.38;;;;;;;27.19;49.95;99437.63;5073845;28;20028;-84
2022/06/13 07:27:21;;;;;;;1.60;0.95;;;;;;;27.27;50.01;99428.84;5074216;28;20407;-83
2022/06/13 07:29:47;;;;;;;2.13;1.25;;;;;;;27.80;50.79;99433.97;5073454;28;20055;-83
2022/06/13 07:32:17;;;;;;;1.73;1.23;;;;;;;27.36;49.06;99440.69;5073847;28;20120;-83
2022/06/13 07:34:44;;;;;;;3.45;1.42;;;;;;;27.15;51.06;99458.69;5073711;28;20471;-83
2022/06/13 07:38:16;;;;;;;1.60;1.13;;;;;;;26.98;51.93;99459.31;5073043;28;20024;-84
2022/06/13 07:40:02;;;;;;;3.35;1.15;;;;;;;26.72;51.88;99431.81;5073710;28;20041;-83
2022/06/13 07:42:33;;;;;;;1.75;1.27;;;;;;;26.85;51.46;99459.53;5073349;28;20036;-84
2022/06/13 07:44:58;;;;;;;2.38;1.33;;;;;;;26.32;51.48;99451.44;5074337;28;20573;-84
2022/06/13 07:47:24;;;;;;;1.08;0.95;;;;;;;26.25;52.72;99427.63;5073616;28;20024;-84
2022/06/13 07:49:49;;;;;;;1.08;0.75;;;;;;;26.49;53.82;99452.69;5072917;28;20037;-84
2022/06/13 07:52:14;;;;;;;2.70;1.60;;;;;;;26.78;53.74;99444.81;5071864;28;20028;-84
2022/06/13 07:54:40;;;;;;;1.83;1.50;;;;;;;26.78;51.78;99450.22;5053032;28;20108;-85
2022/06/13 07:57:05;;;;;;;1.92;1.05;;;;;;;27.37;50.06;99439.72;5053425;28;20519;-83
2022/06/13 07:59:31;;;;;;;1.85;1.20;;;;;;;27.61;51.70;99451.06;5053593;28;20159;-85
2022/06/13 08:01:58;;;;;;;2.03;1.08;;;;;;;27.99;51.52;99441.34;5058579;28;20418;-85
2022/06/13 08:04:23;;;;;;;1.27;0.90;;;;;;;28.12;48.34;99429.34;5073541;28;20031;-85
2022/06/13 08:06:49;;;;;;;1.00;0.93;;;;;;;28.31;48.75;99437.47;5073060;28;20028;-85
2022/06/13 08:09:14;;;;;;;2.97;1.50;;;;;;;28.74;48.82;99447.03;5073630;28;20473;-86
2022/06/13 08:11:50;;;;;;;2.60;1.60;;;;;;;29.02;50.20;99460.66;5072394;28;20125;-85
2022/06/13 08:14:16;;;;;;;1.75;1.35;;;;;;;28.71;48.19;99446.47;5073293;28;20037;-85
2022/06/13 08:16:42;;;;;;;2.47;1.60;;;;;;;28.25;50.88;99420.94;5073108;28;20060;-86
2022/06/13 08:19:08;;;;;;;2.28;1.23;;;;;;;28.37;50.60;99452.31;5072536;28;20521;-86
2022/06/13 08:21:36;;;;;;;2.47;1.42;;;;;;;28.35;49.94;99440.78;5073226;28;20089;-85
2022/06/13 08:24:03;;;;;;;5.05;1.83;;;;;;;28.21;50.51;99444.78;5072456;28;20060;-86
2022/06/13 08:26:28;;;;;;;1.33;1.02;;;;;;;28.10;51.28;99477.41;5073183;28;20040;-85
2022/06/13 08:28:54;;;;;;;3.30;1.67;;;;;;;27.74;50.70;99449.94;5073170;28;20025;-85
2022/06/13 08:31:22;;;;;;;1.58;1.40;;;;;;;27.43;49.09;99460.84;5072957;28;20072;-85
2022/06/13 08:33:48;;;;;;;1.77;1.10;;;;;;;27.56;49.05;99447.03;5073176;28;20024;-85
2022/06/13 08:36:15;;;;;;;2.85;1.27;;;;;;;27.47;49.67;99459.59;5072984;28;20033;-86
2022/06/13 08:38:41;;;;;;;3.20;1.95;;;;;;;27.45;51.15;99450.72;5072781;28;20047;-85
2022/06/13 08:41:15;;;;;;;3.85;2.38;;;;;;;28.02;49.70;99457.31;5073193;28;20123;-85
2022/06/13 08:44:08;;;;;;;3.05;1.50;;;;;;;27.97;49.26;99478.53;5073290;28;20453;-85
2022/06/13 08:46:45;;;;;;;2.83;1.25;;;;;;;27.94;48.39;99472.53;5073211;28;20025;-85
2022/06/13 08:49:56;;;;;;;4.55;1.85;;;;;;;28.10;50.97;99474.72;5072577;28;20414;-85
2022/06/13 08:52:34;;;;;;;2.03;1.60;;;;;;;27.81;47.03;99484.47;5069335;28;20507;-83
2022/06/13 08:55:38;;;;;;;1.70;1.10;;;;;;;27.96;49.21;99482.28;5072208;28;20060;-86
2022/06/13 08:58:21;;;;;;;1.48;1.13;;;;;;;28.10;49.57;99466.56;5072350;28;20028;-85
2022/06/13 09:00:54;;;;;;;3.10;1.63;;;;;;;27.86;46.79;99471.34;5072611;28;20115;-85
2022/06/13 09:03:25;;;;;;;1.88;1.33;;;;;;;27.92;50.19;99490.78;5054022;28;20036;-85
2022/06/13 09:05:59;;;;;;;2.47;1.52;;;;;;;28.25;49.19;99477.88;5072143;28;20107;-84
2022/06/13 09:08:49;;;;;;;3.17;1.63;;;;;;;28.77;51.50;99480.31;5072140;28;20456;-83
2022/06/13 09:11:23;;;;;;;2.38;1.50;;;;;;;29.08;46.92;99460.06;5072148;28;20032;-86
2022/06/13 09:13:54;;;;;;;1.60;1.23;;;;;;;29.36;46.86;99479.16;5072253;28;20058;-85
2022/06/13 09:16:24;;;;;;;1.90;1.13;;;;;;;29.64;47.31;99473.75;5072076;28;20406;-85
2022/06/13 09:18:59;;;;;;;1.63;1.45;;;;;;;29.30;46.73;99474.31;5054220;28;20409;-85
2022/06/13 09:21:37;;;;;;;2.50;1.60;;;;;;;29.11;45.57;99486.94;5071220;28;20028;-85
2022/06/13 09:24:40;;;;;;;1.90;1.23;;;;;;;28.70;43.57;99478.19;5071695;28;20035;-85
2022/06/13 09:27:18;;;;;;;2.22;1.40;;;;;;;29.23;45.26;99484.09;5072429;28;20036;-85
2022/06/13 09:30:04;;;;;;;3.00;1.92;;;;;;;28.91;43.65;99456.25;5071323;28;20051;-84
2022/06/13 09:32:36;;;;;;;3.28;2.00;;;;;;;28.94;43.76;99477.69;5071503;28;20474;-84
2022/06/13 09:35:23;;;;;;;2.38;1.85;;;;;;;28.75;44.87;99475.88;5071457;28;20031;-84
2022/06/13 09:37:56;;;;;;;2.35;1.73;;;;;;;28.50;44.95;99462.88;5071082;28;20066;-84
2022/06/13 09:40:36;;;;;;;2.97;1.42;;;;;;;28.50;43.91;99450.19;5071711;28;20116;-83
2022/06/13 09:43:11;;;;;;;2.50;1.77;;;;;;;28.69;43.29;99472.91;5071320;28;20032;-84
2022/06/13 09:46:14;;;;;;;1.73;1.23;;;;;;;28.60;43.40;99462.91;5071774;28;20039;-84
2022/06/13 09:48:45;;;;;;;2.40;1.70;;;;;;;28.76;42.04;99476.72;5040078;28;20036;-84
2022/06/13 09:51:51;;;;;;;2.25;1.52;;;;;;;28.71;43.97;99463.59;5070502;28;20036;-84
2022/06/13 09:54:46;;;;;;;1.88;1.40;;;;;;;28.68;42.47;99463.88;5049432;28;20064;-84
2022/06/13 09:57:12;;;;;;;2.60;1.42;;;;;;;28.77;43.42;99473.03;5071544;28;20116;-84
2022/06/13 09:59:47;;;;;;;3.97;2.15;;;;;;;28.54;48.57;99448.03;5071360;28;20111;-84
2022/06/13 10:02:26;;;;;;;2.30;1.48;;;;;;;28.78;45.38;99471.16;5070575;28;20035;-83
2022/06/13 10:05:18;;;;;;;2.08;1.45;;;;;;;28.60;43.72;99452.06;5071302;28;20032;-84
2022/06/13 10:08:04;;;;;;;2.55;1.67;;;;;;;28.75;44.11;99459.59;5070672;28;20035;-84
2022/06/13 10:10:42;;;;;;;5.15;2.38;;;;;;;28.98;44.53;99483.69;5070316;28;20103;-84
2022/06/13 10:13:39;;;;;;;2.30;1.73;;;;;;;29.00;46.59;99470.81;5071395;28;20021;-85
2022/06/13 10:16:35;;;;;;;2.88;1.80;;;;;;;28.94;45.58;99472.25;5070550;28;20081;-84
2022/06/13 10:19:34;;;;;;;1.90;1.30;;;;;;;29.03;47.49;99475.13;5071133;28;20028;-84
2022/06/13 10:22:29;;;;;;;2.55;2.17;;;;;;;29.50;46.70;99457.94;5051357;28;20029;-84
2022/06/13 10:25:12;;;;;;;2.15;1.15;;;;;;;29.84;46.65;99466.38;5050252;28;20043;-84
2022/06/13 10:27:47;;;;;;;2.55;1.52;;;;;;;29.53;45.54;99463.09;5050923;28;20548;-84
2022/06/13 10:30:20;;;;;;;1.42;1.30;;;;;;;29.54;44.33;99438.47;5051046;28;20068;-84
2022/06/13 10:33:25;;;;;;;2.92;1.73;;;;;;;29.36;42.68;99457.44;5050360;28;20491;-84
2022/06/13 10:36:09;;;;;;;2.88;1.67;;;;;;;29.59;46.92;99432.59;5048359;28;20407;-84
2022/06/13 10:38:41;;;;;;;;;;;;;;;29.80;45.40;99451.38;5069742;28;20472;-84
2022/06/13 10:41:08;;;;;;;2.38;1.63;;;;;;;30.20;45.88;99443.78;5070110;28;19912;-84
2022/06/13 10:43:36;;;;;;;10.57;1.90;;;;;;;30.51;41.73;99441.56;5064144;28;20093;-84
2022/06/13 10:46:01;;;;;;;1.98;1.60;;;;;;;29.99;44.18;99428.63;5061091;28;20029;-84
2022/06/13 10:48:45;;;;;;;2.50;1.88;;;;;;;29.61;43.07;99393.41;5051005;28;20021;-84
2022/06/13 10:51:10;;;;;;;3.27;1.67;;;;;;;29.74;42.62;99433.78;5067777;28;20028;-84
2022/06/13 10:53:45;;;;;;;2.22;1.55;;;;;;;29.93;44.65;99432.81;5070638;28;20063;-83
2022/06/13 10:56:20;;;;;;;3.83;2.17;;;;;;;30.16;44.11;99433.22;5070320;28;20414;-84
2022/06/13 10:58:52;;;;;;;1.90;1.63;;;;;;;29.60;44.42;99424.28;5070502;28;20063;-84
2022/06/13 11:01:25;;;;;;;2.55;1.58;;;;;;;30.00;45.45;99428.47;5070257;28;20060;-84
2022/06/13 11:04:24;;;;;;;3.03;1.75;;;;;;;29.94;45.77;99430.97;5070811;28;20064;-84
2022/06/13 11:06:53;;;;;;;3.00;1.85;;;;;;;29.63;44.20;99415.00;5069936;28;20055;-84
2022/06/13 11:09:23;;;;;;;3.47;1.73;;;;;;;29.89;44.40;99419.69;5070852;28;20029;-82
2022/06/13 11:11:55;;;;;;;2.17;1.55;;;;;;;29.78;42.57;99418.91;5070189;28;20123;-83
2022/06/13 11:14:31;;;;;;;3.13;1.70;;;;;;;29.91;44.53;99428.56;5070358;28;20495;-83
2022/06/13 11:22:40;;;;;;;2.28;1.63;;;;;;;30.24;45.30;99409.84;5070282;28;20035;-84
2022/06/13 11:25:17;;;;;;;1.95;1.25;;;;;;;30.32;45.71;99402.59;5069808;28;20074;-84
2022/06/13 11:27:47;;;;;;;3.58;2.20;;;;;;;30.17;43.24;99390.59;5069781;28;20036;-83
2022/06/13 11:30:30;;;;;;;4.95;2.33;;;;;;;30.26;42.26;99397.78;5070578;28;20052;-83
2022/06/13 11:33:05;;;;;;;2.78;1.33;;;;;;;30.17;44.19;99402.31;5069713;28;20029;-83
2022/06/13 11:35:38;;;;;;;2.78;1.95;;;;;;;30.41;42.00;99376.34;5055698;28;20116;-84
2022/06/13 11:38:34;;;;;;;4.10;1.80;;;;;;;30.48;41.64;99385.59;5067687;28;20036;-84
2022/06/13 11:41:37;;;;;;;3.40;2.03;;;;;;;30.38;42.59;99389.38;5074399;28;20048;-84
2022/06/13 11:44:06;;;;;;;3.23;2.00;;;;;;;30.65;42.76;99377.53;5073896;28;20027;-83
2022/06/13 11:46:53;;;;;;;2.08;1.58;;;;;;;30.72;41.44;99384.03;5073865;28;20025;-84
2022/06/13 11:49:29;;;;;;;3.40;1.90;;;;;;;30.93;41.39;99374.63;5073153;28;20501;-84
2022/06/13 11:52:09;;;;;;;3.08;2.63;;;;;;;30.87;39.90;99362.50;5073775;28;20060;-84
2022/06/13 11:54:55;;;;;;;12.20;3.78;;;;;;;30.92;37.59;99375.66;5073023;28;20039;-84
2022/06/13 11:57:23;;;;;;;2.42;1.40;;;;;;;30.62;40.33;99375.13;5073399;28;20045;-84
2022/06/13 11:59:58;;;;;;;3.13;1.67;;;;;;;30.99;42.66;99365.84;5073594;28;20130;-84
2022/06/13 12:02:43;;;;;;;2.60;1.38;;;;;;;31.10;39.59;99357.38;5066917;28;20028;-84
2022/06/13 12:05:16;;;;;;;2.55;1.90;;;;;;;31.08;41.68;99356.72;5073274;28;20037;-84
2022/06/13 12:07:55;;;;;;;2.25;1.88;;;;;;;30.73;45.39;99336.75;5073214;28;20121;-84
2022/06/13 12:10:25;;;;;;;2.75;1.30;;;;;;;31.11;42.85;99356.38;5054850;28;20079;-83
2022/06/13 12:12:52;;;;;;;2.80;1.65;;;;;;;31.02;42.18;99338.28;5073515;28;20029;-84
2022/06/13 12:15:20;;;;;;;3.65;2.15;;;;;;;31.20;40.67;99368.13;5072329;28;20035;-84
2022/06/13 12:18:00;;;;;;;2.80;1.60;;;;;;;31.41;38.22;99337.75;5073015;28;20036;-84
2022/06/13 12:20:33;;;;;;;2.60;1.92;;;;;;;31.49;38.18;99350.53;5073375;28;20032;-83